Terminal Aerodrome Forecast
Issued by NWS

Current Version | Previous Version | Graphics & Text | Print | Product List | Glossary On
Versions: 1 2 3 4 5 6 7 8 9 10 11 12 13 14 15 16 17 18 19 20 21 22 23 24 25 26
000
FTUS41 KPBZ 262320
TAFHLG
TAF
KHLG 262320Z 2700/2724 26006KT P6SM BKN050
      TEMPO 2700/2702 5SM SHRA BR BKN035
     FM270800 30001KT 2SM BR BKN010
     FM271300 VRB03KT P6SM BKN250=

USA.gov is the U.S. government's official web portal to all federal, state and local government web resources and services.